National Weather Service United States Department of Commerce
News Headlines
 
       

                   ZNY Airspace Headline (click to jump to Airspace Weather)  - PreDuty ZNY Weather Briefing

  Aviation Weather Impacts

                  N90 Terminal Headline (see below)

NY Terminal Aviation Weather Discussion (AFD) - Prepared: 
 

5 Day General Aviation Outlook:

 

NY Metro Terminal Aviation Weather Summary: (Explanation of Color Coding)
NOTE: All Wind Directions are TRUE (add 13 degrees for magnetic directions). Tail and Crosswind Calculations do account for the magnetic deviation of runways.

JFK TAF LGA TAF EWR TAF TEB TAF HPN TAF ISP TAF
Click on the Airport Below for Specific Information at that Terminal
************************************************************************************************

KJFK Terminal Weather: (Wind Directions Are True, Except Where Noted, ADD 13 degrees for Magnetic)  

Latest Wind Data for KJFK
 Click for GRAPH of Ribbon Display   Click for TEXT of Ribbon Display and ASOS Winds

Latest KJFK METAR
METAR KJFK 220051Z 20011KT 10SM BKN250 10/06 A3007 RMK AO2 SLP182
     T01000061

Latest KJFK TAFDecoded KJFK TAF (Click Image to Enlarge)
  KJFK 212339Z 2200/2306 20014KT P6SM BKN250
     FM220700 21010KT P6SM BKN040
     FM220900 21007KT 6SM -RA OVC035
     FM221100 VRB05KT 5SM -RA BR OVC015
     FM221400 31010KT 6SM -SHRA BKN025
     FM221600 32013G20KT P6SM SCT025 BKN070
     FM221900 32017G24KT P6SM SCT040 SCT250
     FM230300 32013G19KT P6SM SKC


 
JFK Hourly Forecast Temperature (Degrees C) - Time is Local !

************************************************************************************************

KLGA Terminal Weather: (Wind Directions Are True, Except Where Noted, ADD 13 degrees for Magnetic)  

Latest Wind Data for KLGA
 Click for GRAPH of Ribbon Display   Click for TEXT of Ribbon Display and ASOS Winds

Latest KLGA METAR
METAR KLGA 220051Z 17006KT 10SM BKN250 12/03 A3005 RMK AO2 SLP175
     T01170033

Latest KLGA TAFDecoded KLGA TAF (Click Image to Enlarge)
  KLGA 212339Z 2200/2224 21008KT P6SM BKN250
     FM220700 20007KT P6SM BKN045
     FM220900 21006KT 6SM -RA OVC040
     FM221100 VRB05KT 5SM -RA BR OVC025
     FM221400 32008KT 6SM -SHRA BKN030
     FM221600 32011G19KT P6SM SCT030 BKN080
     FM221900 33016G23KT P6SM SCT040 SCT250





 

 

LGA Hourly Forecast Temperature (Degrees C) - Time is Local !

************************************************************************************************

KEWR Terminal Weather: (Wind Directions Are True, Except Where Noted, ADD 13 degrees for Magnetic)  

Latest Wind Data for KEWR
 Click for GRAPH of Ribbon Display   Click for TEXT of Ribbon Display and ASOS Winds

Latest KEWR METAR
METAR KEWR 220051Z 18007KT 10SM FEW180 BKN250 11/02 A3005 RMK AO2 SLP174
     T01110022

Latest KEWR TAFDecoded KEWR TAF (Click Image to Enlarge)
  KEWR 212339Z 2200/2306 19005KT P6SM SCT250
     FM220800 20005KT P6SM BKN045
     FM221000 22004KT 6SM -RA OVC040
     FM221200 VRB05KT 5SM -RA BR OVC025
     FM221400 31009KT 6SM -SHRA BKN035
     FM221600 32013G20KT P6SM SCT035 BKN080
     FM221900 32016G23KT P6SM SCT040 SCT250
     FM230300 32011G18KT P6SM SKC






 

 

Afternoon EWR Haze Potential Forecast: 

************************************************************************************************

KTEB Terminal Weather: (Wind Directions Are True, Except Where Noted, ADD 13 degrees for Magnetic)
Latest KTEB METAR
METAR KTEB 220051Z 21004KT 10SM CLR 09/02 A3004 RMK AO2 SLP172
     T00940022

Latest KTEB TAFDecoded KTEB TAF (Click Image to Enlarge)
  KTEB 212339Z 2200/2224 20005KT P6SM SCT250
     FM220800 20005KT P6SM BKN045
     FM221000 22004KT 6SM -RA OVC040
     FM221200 VRB04KT 5SM -RA BR OVC025
     FM221400 31009KT 6SM -SHRA BKN035
     FM221600 32011G18KT P6SM SCT035 BKN080
     FM221900 32014G21KT P6SM SCT040 SCT250






 

 

************************************************************************************************

KHPN Terminal Weather: (Wind Directions Are True, Except Where Noted, ADD 13 degrees for Magnetic)
Latest KHPN METAR
METAR KHPN 220056Z VRB05KT 10SM CLR 09/04 A3003 RMK AO2 SLP174
     T00890044

Latest KHPN TAFDecoded KHPN TAF (Click Image to Enlarge)
  KHPN 212339Z 2200/2224 20005KT P6SM SCT045 SCT250
     FM220800 VRB03KT P6SM BKN045
     FM221000 VRB03KT 5SM -RA BR OVC020
     FM221400 31006KT 5SM -SHRA BR SCT020 BKN030
     FM221600 32012G19KT P6SM SCT035 BKN080
     FM221900 32016G23KT P6SM SCT040 SCT250 AMD NOT SKED






 

 

************************************************************************************************

KISP Terminal Weather: (Wind Directions Are True, Except Where Noted, ADD 13 degrees for Magnetic)
Latest KISP METAR
METAR KISP 220056Z 22013KT 10SM BKN250 12/08 A3006 RMK AO2 SLP181
     T01220078

Latest KISP TAFDecoded KISP TAF (Click Image to Enlarge)
  KISP 212339Z 2200/2224 21010KT P6SM SCT250
     FM220600 21006KT P6SM BKN040
     FM220900 21006KT 6SM -RA OVC020
     FM221200 VRB05KT 5SM -RA BR OVC008
     FM221500 32008KT 5SM -SHRA BR OVC015
     FM221700 33011G18KT P6SM SCT020 BKN040
     FM222000 33015G22KT P6SM SCT040 SCT250






 

ZNY WINTER Season Information:

N90 AirSpace Impacts

******  PIREPS  ******


Surface Weather Map

Surface Weather Map

N90 Icing Forecast

N90 Icing Forecast

Compression Outlook

Compression Outlook

N90 DAY 1 SWAP Outlook (Issued if Expected outside SWAP Season)

N90 Day 1 SWAP Outlook

 

Compression Forecast (Experimental) ... (Issued if Expected)

Compression Forecast

N90 DAY 2 SWAP Outlook (Issued if Expected outside SWAP Season

N90 Day 2 SWAP Outlook

TCM Convective Forecast (TCF) (Mar-Oct)

FAA Training (Use Internet Explorer Only !)


Vertical Wind Profile

RED LINE is the "Highest" Freezing Level - Lower Freezing Level Can Exist.